Time,TemperatureF,DewpointF,PressureIn,WindDirection,WindDirectionDegrees,WindSpeedMPH,WindSpeedGustMPH,Humidity,HourlyPrecipIn,Conditions,Clouds,dailyrainin,SoftwareType,DateUTC
2013-03-04 00:00:00,63.0,53.0,-100.00,SE,144,21.0,-999.0,69,0.00,,,-99.99,,2013-03-04 00:00:00,
2013-03-04 00:21:00,63.0,53.0,-100.00,SE,144,21.0,-999.0,69,0.00,,,-99.99,,2013-03-04 00:21:00,
2013-03-04 00:32:00,63.0,53.0,-100.00,SE,144,21.0,-999.0,69,0.00,,,-99.99,,2013-03-04 00:32:00,
2013-03-04 00:42:00,63.0,53.0,-100.00,SE,144,21.0,-999.0,69,0.00,,,-99.99,,2013-03-04 00:42:00,
2013-03-04 00:52:00,63.0,53.0,-100.00,SE,144,21.0,-999.0,69,0.00,,,-99.99,,2013-03-04 00:52:00,
2013-03-04 01:00:00,63.0,55.0,-100.00,SE,145,18.0,-999.0,75,0.00,,,-99.99,,2013-03-04 01:00:00,
2013-03-04 01:21:00,63.0,55.0,-100.00,SE,145,18.0,-999.0,75,0.00,,,-99.99,,2013-03-04 01:21:00,
2013-03-04 01:32:00,63.0,55.0,-100.00,SE,145,18.0,-999.0,75,0.00,,,-99.99,,2013-03-04 01:32:00,
2013-03-04 01:42:00,63.0,55.0,-100.00,SE,145,18.0,-999.0,75,0.00,,,-99.99,,2013-03-04 01:42:00,
2013-03-04 01:52:00,63.0,55.0,-100.00,SE,145,18.0,-999.0,75,0.00,,,-99.99,,2013-03-04 01:52:00,
2013-03-04 02:00:00,63.0,55.0,-100.00,SSE,154,20.0,-999.0,75,0.00,,,-99.99,,2013-03-04 02:00:00,
2013-03-04 02:22:00,63.0,55.0,-100.00,SSE,154,20.0,-999.0,75,0.00,,,-99.99,,2013-03-04 02:22:00,
2013-03-04 02:32:00,63.0,55.0,-100.00,SSE,154,20.0,-999.0,75,0.00,,,-99.99,,2013-03-04 02:32:00,
2013-03-04 02:42:00,63.0,55.0,-100.00,SSE,154,20.0,-999.0,75,0.00,,,-99.99,,2013-03-04 02:42:00,
2013-03-04 02:52:00,63.0,55.0,-100.00,SSE,154,20.0,-999.0,75,0.00,,,-99.99,,2013-03-04 02:52:00,
2013-03-04 03:00:00,63.0,55.0,-100.00,SSE,161,21.0,-999.0,76,0.00,,,-99.99,,2013-03-04 03:00:00,
2013-03-04 03:22:00,63.0,55.0,-100.00,SSE,161,21.0,-999.0,76,0.00,,,-99.99,,2013-03-04 03:22:00,
2013-03-04 03:32:00,63.0,55.0,-100.00,SSE,161,21.0,-999.0,76,0.00,,,-99.99,,2013-03-04 03:32:00,
2013-03-04 03:42:00,63.0,55.0,-100.00,SSE,161,21.0,-999.0,76,0.00,,,-99.99,,2013-03-04 03:42:00,
2013-03-04 03:52:00,63.0,55.0,-100.00,SSE,161,21.0,-999.0,76,0.00,,,-99.99,,2013-03-04 03:52:00,
2013-03-04 04:00:00,63.0,55.0,-100.00,SSE,168,20.0,-999.0,75,0.00,,,-99.99,,2013-03-04 04:00:00,
2013-03-04 04:22:00,63.0,55.0,-100.00,SSE,168,20.0,-999.0,75,0.00,,,-99.99,,2013-03-04 04:22:00,
2013-03-04 04:32:00,63.0,55.0,-100.00,SSE,168,20.0,-999.0,75,0.00,,,-99.99,,2013-03-04 04:32:00,
2013-03-04 04:42:00,63.0,55.0,-100.00,SSE,168,20.0,-999.0,75,0.00,,,-99.99,,2013-03-04 04:42:00,
2013-03-04 04:52:00,63.0,55.0,-100.00,SSE,168,20.0,-999.0,75,0.00,,,-99.99,,2013-03-04 04:52:00,
2013-03-04 05:00:00,63.0,56.0,-100.00,SSE,168,21.0,-999.0,76,0.00,,,-99.99,,2013-03-04 05:00:00,
2013-03-04 05:22:00,63.0,56.0,-100.00,SSE,168,21.0,-999.0,76,0.00,,,-99.99,,2013-03-04 05:22:00,
2013-03-04 05:32:00,63.0,56.0,-100.00,SSE,168,21.0,-999.0,76,0.00,,,-99.99,,2013-03-04 05:32:00,
2013-03-04 05:42:00,63.0,56.0,-100.00,SSE,168,21.0,-999.0,76,0.00,,,-99.99,,2013-03-04 05:42:00,
2013-03-04 05:52:00,63.0,56.0,-100.00,SSE,168,21.0,-999.0,76,0.00,,,-99.99,,2013-03-04 05:52:00,
2013-03-04 06:00:00,63.0,55.0,-100.00,South,171,18.0,-999.0,76,0.00,,,-99.99,,2013-03-04 06:00:00,
2013-03-04 06:21:00,63.0,55.0,-100.00,South,171,18.0,-999.0,76,0.00,,,-99.99,,2013-03-04 06:21:00,
2013-03-04 06:32:00,63.0,55.0,-100.00,South,171,18.0,-999.0,76,0.00,,,-99.99,,2013-03-04 06:32:00,
2013-03-04 06:42:00,63.0,55.0,-100.00,South,171,18.0,-999.0,76,0.00,,,-99.99,,2013-03-04 06:42:00,
2013-03-04 06:52:00,63.0,55.0,-100.00,South,171,18.0,-999.0,76,0.00,,,-99.99,,2013-03-04 06:52:00,
2013-03-04 07:00:00,63.0,55.0,-100.00,South,171,19.0,-999.0,75,0.00,,,-99.99,,2013-03-04 07:00:00,
2013-03-04 07:21:00,63.0,55.0,-100.00,South,171,19.0,-999.0,75,0.00,,,-99.99,,2013-03-04 07:21:00,
2013-03-04 07:32:00,63.0,55.0,-100.00,South,171,19.0,-999.0,75,0.00,,,-99.99,,2013-03-04 07:32:00,
2013-03-04 07:42:00,63.0,55.0,-100.00,South,171,19.0,-999.0,75,0.00,,,-99.99,,2013-03-04 07:42:00,
2013-03-04 07:52:00,63.0,55.0,-100.00,South,171,19.0,-999.0,75,0.00,,,-99.99,,2013-03-04 07:52:00,
2013-03-04 08:00:00,63.0,55.0,-100.00,SSE,168,22.0,-999.0,74,0.00,,,-99.99,,2013-03-04 08:00:00,
2013-03-04 08:22:00,63.0,55.0,-100.00,SSE,168,22.0,-999.0,74,0.00,,,-99.99,,2013-03-04 08:22:00,
2013-03-04 08:32:00,63.0,55.0,-100.00,SSE,168,22.0,-999.0,74,0.00,,,-99.99,,2013-03-04 08:32:00,
2013-03-04 08:42:00,63.0,55.0,-100.00,SSE,168,22.0,-999.0,74,0.00,,,-99.99,,2013-03-04 08:42:00,
2013-03-04 08:52:00,63.0,55.0,-100.00,SSE,168,22.0,-999.0,74,0.00,,,-99.99,,2013-03-04 08:52:00,
2013-03-04 09:00:00,63.0,56.0,-100.00,SSE,168,20.0,-999.0,77,0.00,,,-99.99,,2013-03-04 09:00:00,
2013-03-04 09:21:00,63.0,56.0,-100.00,SSE,168,20.0,-999.0,77,0.00,,,-99.99,,2013-03-04 09:21:00,
2013-03-04 09:32:00,63.0,56.0,-100.00,SSE,168,20.0,-999.0,77,0.00,,,-99.99,,2013-03-04 09:32:00,
2013-03-04 09:42:00,63.0,56.0,-100.00,SSE,168,20.0,-999.0,77,0.00,,,-99.99,,2013-03-04 09:42:00,
2013-03-04 09:52:00,63.0,56.0,-100.00,SSE,168,20.0,-999.0,77,0.00,,,-99.99,,2013-03-04 09:52:00,
2013-03-04 10:00:00,63.0,56.0,-100.00,SSE,168,20.0,-999.0,78,0.00,,,-99.99,,2013-03-04 10:00:00,
2013-03-04 10:22:00,63.0,56.0,-100.00,SSE,168,20.0,-999.0,78,0.00,,,-99.99,,2013-03-04 10:22:00,
2013-03-04 10:32:00,63.0,56.0,-100.00,SSE,168,20.0,-999.0,78,0.00,,,-99.99,,2013-03-04 10:32:00,
2013-03-04 10:42:00,63.0,56.0,-100.00,SSE,168,20.0,-999.0,78,0.00,,,-99.99,,2013-03-04 10:42:00,
2013-03-04 10:52:00,63.0,56.0,-100.00,SSE,168,20.0,-999.0,78,0.00,,,-99.99,,2013-03-04 10:52:00,
2013-03-04 11:00:00,63.0,57.0,-100.00,South,171,20.0,-999.0,80,0.00,,,-99.99,,2013-03-04 11:00:00,
2013-03-04 11:22:00,63.0,57.0,-100.00,South,171,20.0,-999.0,80,0.00,,,-99.99,,2013-03-04 11:22:00,
2013-03-04 11:32:00,63.0,57.0,-100.00,South,171,20.0,-999.0,80,0.00,,,-99.99,,2013-03-04 11:32:00,
2013-03-04 11:42:00,63.0,57.0,-100.00,South,171,20.0,-999.0,80,0.00,,,-99.99,,2013-03-04 11:42:00,
2013-03-04 11:52:00,63.0,57.0,-100.00,South,171,20.0,-999.0,80,0.00,,,-99.99,,2013-03-04 11:52:00,
2013-03-04 12:00:00,63.0,58.0,-100.00,South,175,18.0,-999.0,82,0.00,,,-99.99,,2013-03-04 12:00:00,
2013-03-04 12:22:00,63.0,58.0,-100.00,South,175,18.0,-999.0,82,0.00,,,-99.99,,2013-03-04 12:22:00,
2013-03-04 12:32:00,63.0,58.0,-100.00,South,175,18.0,-999.0,82,0.00,,,-99.99,,2013-03-04 12:32:00,
2013-03-04 12:42:00,63.0,58.0,-100.00,South,175,18.0,-999.0,82,0.00,,,-99.99,,2013-03-04 12:42:00,
2013-03-04 12:53:00,63.0,58.0,-100.00,South,175,18.0,-999.0,82,0.00,,,-99.99,,2013-03-04 12:53:00,
2013-03-04 13:00:00,63.0,58.0,-100.00,South,174,16.0,-999.0,84,0.00,,,-99.99,,2013-03-04 13:00:00,
2013-03-04 13:21:00,63.0,58.0,-100.00,South,174,16.0,-999.0,84,0.00,,,-99.99,,2013-03-04 13:21:00,
2013-03-04 13:32:00,63.0,58.0,-100.00,South,174,16.0,-999.0,84,0.00,,,-99.99,,2013-03-04 13:32:00,
2013-03-04 13:42:00,63.0,58.0,-100.00,South,174,16.0,-999.0,84,0.00,,,-99.99,,2013-03-04 13:42:00,
2013-03-04 13:52:00,63.0,58.0,-100.00,South,174,16.0,-999.0,84,0.00,,,-99.99,,2013-03-04 13:52:00,
2013-03-04 14:00:00,64.0,59.0,-100.00,South,177,20.0,-999.0,83,0.00,,,-99.99,,2013-03-04 14:00:00,
2013-03-04 14:22:00,64.0,59.0,-100.00,South,177,20.0,-999.0,83,0.00,,,-99.99,,2013-03-04 14:22:00,
2013-03-04 14:32:00,64.0,59.0,-100.00,South,177,20.0,-999.0,83,0.00,,,-99.99,,2013-03-04 14:32:00,
2013-03-04 14:42:00,64.0,59.0,-100.00,South,177,20.0,-999.0,83,0.00,,,-99.99,,2013-03-04 14:42:00,
2013-03-04 14:52:00,64.0,59.0,-100.00,South,177,20.0,-999.0,83,0.00,,,-99.99,,2013-03-04 14:52:00,
2013-03-04 15:00:00,65.0,59.0,-100.00,South,182,22.0,-999.0,80,0.00,,,-99.99,,2013-03-04 15:00:00,
2013-03-04 15:22:00,65.0,59.0,-100.00,South,182,22.0,-999.0,80,0.00,,,-99.99,,2013-03-04 15:22:00,
2013-03-04 15:32:00,65.0,59.0,-100.00,South,182,22.0,-999.0,80,0.00,,,-99.99,,2013-03-04 15:32:00,
2013-03-04 15:42:00,65.0,59.0,-100.00,South,182,22.0,-999.0,80,0.00,,,-99.99,,2013-03-04 15:42:00,
2013-03-04 15:52:00,65.0,59.0,-100.00,South,182,22.0,-999.0,80,0.00,,,-99.99,,2013-03-04 15:52:00,
2013-03-04 16:00:00,67.0,58.0,-100.00,South,175,28.0,-999.0,74,0.00,,,-99.99,,2013-03-04 16:00:00,
2013-03-04 16:21:00,67.0,58.0,-100.00,South,175,28.0,-999.0,74,0.00,,,-99.99,,2013-03-04 16:21:00,
2013-03-04 16:32:00,67.0,58.0,-100.00,South,175,28.0,-999.0,74,0.00,,,-99.99,,2013-03-04 16:32:00,
2013-03-04 16:42:00,67.0,58.0,-100.00,South,175,28.0,-999.0,74,0.00,,,-99.99,,2013-03-04 16:42:00,
2013-03-04 16:52:00,67.0,58.0,-100.00,South,175,28.0,-999.0,74,0.00,,,-99.99,,2013-03-04 16:52:00,
2013-03-04 17:00:00,67.0,58.0,-100.00,South,180,27.0,-999.0,72,0.00,,,-99.99,,2013-03-04 17:00:00,
2013-03-04 17:22:00,67.0,58.0,-100.00,South,180,27.0,-999.0,72,0.00,,,-99.99,,2013-03-04 17:22:00,
2013-03-04 17:32:00,67.0,58.0,-100.00,South,180,27.0,-999.0,72,0.00,,,-99.99,,2013-03-04 17:32:00,
2013-03-04 17:42:00,67.0,58.0,-100.00,South,180,27.0,-999.0,72,0.00,,,-99.99,,2013-03-04 17:42:00,
2013-03-04 17:52:00,67.0,58.0,-100.00,South,180,27.0,-999.0,72,0.00,,,-99.99,,2013-03-04 17:52:00,
2013-03-04 18:00:00,69.0,58.0,-100.00,South,182,24.0,-999.0,68,0.00,,,-99.99,,2013-03-04 18:00:00,
2013-03-04 18:22:00,69.0,58.0,-100.00,South,182,24.0,-999.0,68,0.00,,,-99.99,,2013-03-04 18:22:00,
2013-03-04 18:32:00,69.0,58.0,-100.00,South,182,24.0,-999.0,68,0.00,,,-99.99,,2013-03-04 18:32:00,
2013-03-04 18:42:00,69.0,58.0,-100.00,South,182,24.0,-999.0,68,0.00,,,-99.99,,2013-03-04 18:42:00,
2013-03-04 18:52:00,69.0,58.0,-100.00,South,182,24.0,-999.0,68,0.00,,,-99.99,,2013-03-04 18:52:00,
2013-03-04 19:00:00,68.0,59.0,-100.00,SSE,168,22.0,-999.0,73,0.00,,,-99.99,,2013-03-04 19:00:00,
2013-03-04 19:22:00,68.0,59.0,-100.00,SSE,168,22.0,-999.0,73,0.00,,,-99.99,,2013-03-04 19:22:00,
2013-03-04 19:32:00,68.0,59.0,-100.00,SSE,168,22.0,-999.0,73,0.00,,,-99.99,,2013-03-04 19:32:00,
2013-03-04 19:42:00,68.0,59.0,-100.00,SSE,168,22.0,-999.0,73,0.00,,,-99.99,,2013-03-04 19:42:00,
2013-03-04 19:52:00,68.0,59.0,-100.00,SSE,168,22.0,-999.0,73,0.00,,,-99.99,,2013-03-04 19:52:00,
2013-03-04 20:00:00,68.0,59.0,-100.00,SSE,163,26.0,-999.0,72,0.00,,,-99.99,,2013-03-04 20:00:00,
2013-03-04 20:22:00,68.0,59.0,-100.00,SSE,163,26.0,-999.0,72,0.00,,,-99.99,,2013-03-04 20:22:00,
2013-03-04 20:32:00,68.0,59.0,-100.00,SSE,163,26.0,-999.0,72,0.00,,,-99.99,,2013-03-04 20:32:00,
2013-03-04 20:42:00,68.0,59.0,-100.00,SSE,163,26.0,-999.0,72,0.00,,,-99.99,,2013-03-04 20:42:00,
2013-03-04 20:52:00,68.0,59.0,-100.00,SSE,163,26.0,-999.0,72,0.00,,,-99.99,,2013-03-04 20:52:00,
2013-03-04 21:00:00,68.0,60.0,-100.00,SSE,160,26.0,-999.0,75,0.00,,,-99.99,,2013-03-04 21:00:00,
2013-03-04 21:22:00,68.0,60.0,-100.00,SSE,160,26.0,-999.0,75,0.00,,,-99.99,,2013-03-04 21:22:00,
2013-03-04 21:32:00,68.0,60.0,-100.00,SSE,160,26.0,-999.0,75,0.00,,,-99.99,,2013-03-04 21:32:00,
2013-03-04 21:42:00,68.0,60.0,-100.00,SSE,160,26.0,-999.0,75,0.00,,,-99.99,,2013-03-04 21:42:00,
2013-03-04 21:53:00,68.0,60.0,-100.00,SSE,160,26.0,-999.0,75,0.00,,,-99.99,,2013-03-04 21:53:00,
2013-03-04 22:00:00,68.0,60.0,-100.00,SSE,159,27.0,-999.0,77,0.00,,,-99.99,,2013-03-04 22:00:00,
2013-03-04 22:22:00,68.0,60.0,-100.00,SSE,159,27.0,-999.0,77,0.00,,,-99.99,,2013-03-04 22:22:00,
2013-03-04 22:32:00,68.0,60.0,-100.00,SSE,159,27.0,-999.0,77,0.00,,,-99.99,,2013-03-04 22:32:00,
2013-03-04 22:42:00,68.0,60.0,-100.00,SSE,159,27.0,-999.0,77,0.00,,,-99.99,,2013-03-04 22:42:00,
2013-03-04 22:52:00,68.0,60.0,-100.00,SSE,159,27.0,-999.0,77,0.00,,,-99.99,,2013-03-04 22:52:00,
2013-03-04 23:00:00,67.0,61.0,-100.00,SSE,158,27.0,-999.0,81,0.00,,,-99.99,,2013-03-04 23:00:00,
2013-03-04 23:22:00,67.0,61.0,-100.00,SSE,158,27.0,-999.0,81,0.00,,,-99.99,,2013-03-04 23:22:00,
2013-03-04 23:32:00,67.0,61.0,-100.00,SSE,158,27.0,-999.0,81,0.00,,,-99.99,,2013-03-04 23:32:00,
2013-03-04 23:42:00,67.0,61.0,-100.00,SSE,158,27.0,-999.0,81,0.00,,,-99.99,,2013-03-04 23:42:00,
2013-03-04 23:52:00,67.0,61.0,-100.00,SSE,158,27.0,-999.0,81,0.00,,,-99.99,,2013-03-04 23:52:00,